Time;durP1;ratioP1;P1;durP2;ratioP2;P2;SDS_P1;SDS_P2;PMS_P1;PMS_P2;Temp;Humidity;BMP_temperature;BMP_pressure;BME280_temperature;BME280_humidity;BME280_pressure;Samples;Min_cycle;Max_cycle;Signal;HPM_P1;HPM_P2
2023/08/13 00:00:18;;;;;;;6.93;4.40;;;;;;;;;;5028712;28;20029;-75
2023/08/13 00:03:04;;;;;;;6.53;4.25;;;;;;;;;;5029843;28;20044;-74
2023/08/13 00:05:49;;;;;;;6.10;3.63;;;;;;;;;;5025281;28;20033;-72
2023/08/13 00:08:34;;;;;;;8.43;3.88;;;;;;;;;;5028673;28;20033;-73
2023/08/13 00:11:19;;;;;;;8.32;4.78;;;;;;;;;;5027849;28;20096;-73
2023/08/13 00:14:05;;;;;;;5.30;3.55;;;;;;;;;;5019826;28;20041;-72
2023/08/13 00:16:50;;;;;;;5.60;3.70;;;;;;;;;;5019951;28;20036;-79
2023/08/13 00:19:35;;;;;;;6.75;3.85;;;;;;;;;;5013185;28;20037;-76
2023/08/13 00:22:21;;;;;;;6.88;4.00;;;;;;;;;;5025553;28;20548;-74
2023/08/13 00:25:07;;;;;;;8.13;3.80;;;;;;;;;;5028955;28;20700;-72
2023/08/13 00:27:52;;;;;;;7.50;3.60;;;;;;;;;;5033476;28;20040;-74
2023/08/13 00:30:37;;;;;;;4.85;3.63;;;;;;;;;;5026928;28;20033;-73
2023/08/13 00:33:23;;;;;;;6.95;3.30;;;;;;;;;;5028019;28;20118;-74
2023/08/13 00:36:08;;;;;;;5.75;3.35;;;;;;;;;;5032130;28;20025;-76
2023/08/13 00:38:53;;;;;;;4.55;2.88;;;;;;;;;;5035902;28;20059;-77
2023/08/13 00:41:39;;;;;;;5.68;3.30;;;;;;;;;;5028106;28;20049;-78
2023/08/13 00:44:24;;;;;;;9.18;4.25;;;;;;;;;;5012529;28;20029;-79
2023/08/13 00:47:09;;;;;;;7.30;3.75;;;;;;;;;;5028982;28;20120;-80
2023/08/13 00:49:55;;;;;;;7.20;4.50;;;;;;;;;;5025844;28;20061;-79
2023/08/13 00:52:40;;;;;;;9.07;3.92;;;;;;;;;;5023328;28;20404;-78
2023/08/13 00:55:25;;;;;;;6.38;4.10;;;;;;;;;;5024094;28;20065;-80
2023/08/13 00:58:11;;;;;;;10.73;4.30;;;;;;;;;;5014669;28;20026;-80
2023/08/13 01:00:56;;;;;;;6.80;4.10;;;;;;;;;;5022983;28;20037;-79
2023/08/13 01:03:42;;;;;;;5.82;3.40;;;;;;;;;;5020725;28;20030;-79
2023/08/13 01:06:27;;;;;;;7.38;3.88;;;;;;;;;;5027317;28;20107;-78
2023/08/13 01:09:37;;;;;;;4.60;3.38;;;;;;;;;;5036696;28;20037;-80
2023/08/13 01:12:41;;;;;;;6.68;3.17;;;;;;;;;;5004747;28;20112;-78
2023/08/13 01:15:30;;;;;;;8.15;3.58;;;;;;;;;;5017547;28;20109;-74
2023/08/13 01:18:16;;;;;;;6.07;3.27;;;;;;;;;;5025667;28;20023;-74
2023/08/13 01:21:01;;;;;;;6.30;3.28;;;;;;;;;;5017478;28;20702;-74
2023/08/13 01:23:46;;;;;;;6.32;3.67;;;;;;;;;;5012374;28;20025;-75
2023/08/13 01:26:45;;;;;;;7.93;3.22;;;;;;;;;;5026245;28;20847;-75
2023/08/13 01:29:34;;;;;;;5.15;3.20;;;;;;;;;;5018988;28;20473;-75
2023/08/13 01:32:22;;;;;;;;;;;;;;;;;;5027667;28;20038;-79
2023/08/13 01:35:07;;;;;;;8.68;3.40;;;;;;;;;;5023085;28;19924;-77
2023/08/13 01:37:54;;;;;;;5.57;3.33;;;;;;;;;;5027075;28;20507;-76
2023/08/13 01:40:39;;;;;;;10.98;4.63;;;;;;;;;;5019181;28;20049;-73
2023/08/13 01:43:24;;;;;;;6.10;3.42;;;;;;;;;;5022144;28;20045;-73
2023/08/13 01:46:09;;;;;;;6.40;3.53;;;;;;;;;;5017983;28;20290;-74
2023/08/13 01:48:55;;;;;;;7.00;4.15;;;;;;;;;;5031923;28;20565;-76
2023/08/13 01:51:40;;;;;;;4.50;3.00;;;;;;;;;;5018499;28;20025;-73
2023/08/13 01:54:25;;;;;;;8.43;3.25;;;;;;;;;;5025600;28;20036;-75
2023/08/13 01:57:10;;;;;;;9.05;3.97;;;;;;;;;;5026476;28;20484;-76
2023/08/13 01:59:55;;;;;;;6.57;3.00;;;;;;;;;;5019642;28;20120;-76
2023/08/13 02:02:41;;;;;;;4.97;3.22;;;;;;;;;;5017141;28;20065;-76
2023/08/13 02:05:26;;;;;;;4.75;3.33;;;;;;;;;;5024794;28;20033;-76
2023/08/13 02:08:11;;;;;;;6.03;3.13;;;;;;;;;;5026018;28;20191;-74
2023/08/13 02:10:57;;;;;;;5.97;3.28;;;;;;;;;;5013489;28;20116;-75
2023/08/13 02:13:43;;;;;;;4.10;2.85;;;;;;;;;;5007248;28;20052;-76
2023/08/13 02:16:28;;;;;;;7.85;3.30;;;;;;;;;;5025529;28;20033;-78
2023/08/13 02:19:13;;;;;;;4.35;3.50;;;;;;;;;;5024117;28;20030;-75
2023/08/13 02:21:59;;;;;;;6.18;3.38;;;;;;;;;;5017183;28;20041;-78
2023/08/13 02:24:44;;;;;;;6.75;3.40;;;;;;;;;;5035977;28;20377;-78
2023/08/13 02:27:29;;;;;;;4.28;2.90;;;;;;;;;;5002808;28;20037;-75
2023/08/13 02:30:14;;;;;;;4.15;2.70;;;;;;;;;;5026113;28;20503;-75
2023/08/13 02:33:00;;;;;;;5.32;3.05;;;;;;;;;;5028244;28;20116;-75
2023/08/13 02:35:45;;;;;;;5.88;3.03;;;;;;;;;;5041118;28;20029;-74
2023/08/13 02:38:30;;;;;;;4.72;2.95;;;;;;;;;;5030424;28;20018;-76
2023/08/13 02:41:15;;;;;;;6.55;3.33;;;;;;;;;;5028578;28;20511;-75
2023/08/13 02:44:00;;;;;;;6.20;3.15;;;;;;;;;;5028828;28;20037;-77
2023/08/13 02:46:47;;;;;;;5.43;3.65;;;;;;;;;;5016870;28;20037;-77
2023/08/13 02:49:32;;;;;;;5.63;3.10;;;;;;;;;;5030109;28;20038;-81
2023/08/13 02:52:17;;;;;;;5.30;2.78;;;;;;;;;;5028663;28;20029;-77
2023/08/13 02:55:02;;;;;;;7.50;2.75;;;;;;;;;;5029872;28;20047;-79
2023/08/13 02:57:48;;;;;;;4.13;2.67;;;;;;;;;;5033761;28;20033;-79
2023/08/13 03:00:33;;;;;;;5.45;2.95;;;;;;;;;;5026763;28;20064;-79
2023/08/13 03:03:18;;;;;;;5.88;2.97;;;;;;;;;;5026442;28;20048;-75
2023/08/13 03:06:03;;;;;;;5.10;3.15;;;;;;;;;;5029381;28;20480;-74
2023/08/13 03:08:48;;;;;;;3.25;2.95;;;;;;;;;;5025858;28;20022;-75
2023/08/13 03:11:34;;;;;;;5.53;2.85;;;;;;;;;;5037388;28;20037;-76
2023/08/13 03:14:19;;;;;;;7.82;2.70;;;;;;;;;;5018364;28;20025;-77
2023/08/13 03:17:04;;;;;;;6.70;2.88;;;;;;;;;;5022320;28;20139;-77
2023/08/13 03:19:49;;;;;;;5.53;2.95;;;;;;;;;;5032508;28;20048;-74
2023/08/13 03:22:35;;;;;;;7.47;3.17;;;;;;;;;;5018167;28;20033;-79
2023/08/13 03:25:20;;;;;;;6.25;3.05;;;;;;;;;;5029535;28;20033;-79
2023/08/13 03:28:05;;;;;;;4.60;3.03;;;;;;;;;;5015876;28;20030;-79
2023/08/13 03:30:57;;;;;;;5.13;2.50;;;;;;;;;;5028321;28;20057;-78
2023/08/13 03:33:42;;;;;;;6.45;3.15;;;;;;;;;;5030638;28;20038;-80
2023/08/13 03:36:27;;;;;;;5.95;2.80;;;;;;;;;;5036745;28;20476;-80
2023/08/13 03:39:12;;;;;;;5.65;2.70;;;;;;;;;;5028315;28;20079;-79
2023/08/13 03:41:57;;;;;;;3.78;2.70;;;;;;;;;;5029415;28;20034;-80
2023/08/13 03:44:43;;;;;;;5.10;3.28;;;;;;;;;;5027774;28;20040;-77
2023/08/13 03:47:28;;;;;;;5.28;3.20;;;;;;;;;;5031453;28;20037;-77
2023/08/13 03:50:13;;;;;;;7.60;3.28;;;;;;;;;;5029218;28;20053;-76
2023/08/13 03:52:59;;;;;;;5.78;3.05;;;;;;;;;;5024951;28;20026;-76
2023/08/13 03:55:44;;;;;;;5.38;3.05;;;;;;;;;;5023497;28;20049;-77
2023/08/13 03:58:31;;;;;;;3.60;2.50;;;;;;;;;;5014785;28;20052;-77
2023/08/13 04:01:16;;;;;;;6.40;3.25;;;;;;;;;;5029003;28;20411;-79
2023/08/13 04:04:02;;;;;;;4.60;3.17;;;;;;;;;;5024464;28;20037;-79
2023/08/13 04:06:47;;;;;;;3.47;2.50;;;;;;;;;;5020682;28;20049;-79
2023/08/13 04:09:32;;;;;;;3.38;2.50;;;;;;;;;;5025335;28;20029;-79
2023/08/13 04:12:17;;;;;;;5.85;3.08;;;;;;;;;;5035570;28;20029;-78
2023/08/13 04:15:03;;;;;;;6.43;3.20;;;;;;;;;;5026715;28;20040;-78
2023/08/13 04:17:48;;;;;;;4.93;2.58;;;;;;;;;;5028788;28;20513;-79
2023/08/13 04:20:39;;;;;;;5.78;2.88;;;;;;;;;;5014268;28;20495;-78
2023/08/13 04:23:24;;;;;;;5.88;3.20;;;;;;;;;;5024936;28;20051;-76
2023/08/13 04:26:10;;;;;;;4.20;2.88;;;;;;;;;;5027671;28;20128;-79
2023/08/13 04:28:55;;;;;;;8.30;2.75;;;;;;;;;;5026672;28;20041;-77
2023/08/13 04:31:40;;;;;;;4.45;2.97;;;;;;;;;;5038852;28;20286;-78
2023/08/13 04:34:25;;;;;;;3.28;2.83;;;;;;;;;;5026894;28;20036;-78
2023/08/13 04:37:11;;;;;;;7.38;2.83;;;;;;;;;;5018008;28;20036;-74
2023/08/13 04:39:56;;;;;;;8.32;3.50;;;;;;;;;;5020860;28;20625;-76
2023/08/13 04:42:42;;;;;;;4.60;3.25;;;;;;;;;;5029135;28;20041;-75
2023/08/13 04:45:27;;;;;;;3.72;2.40;;;;;;;;;;5027348;28;20021;-74
2023/08/13 04:48:16;;;;;;;9.63;3.60;;;;;;;;;;5014435;28;20037;-77
2023/08/13 04:51:01;;;;;;;4.17;2.60;;;;;;;;;;5026482;28;20678;-75
2023/08/13 04:53:46;;;;;;;5.57;3.00;;;;;;;;;;5002526;28;20124;-74
2023/08/13 04:56:32;;;;;;;7.32;3.40;;;;;;;;;;5025343;28;20581;-80
2023/08/13 04:59:17;;;;;;;4.15;2.75;;;;;;;;;;5016227;28;20049;-78
2023/08/13 05:02:02;;;;;;;4.05;3.03;;;;;;;;;;5025321;28;20492;-78
2023/08/13 05:04:47;;;;;;;4.70;2.80;;;;;;;;;;5008628;28;20055;-77
2023/08/13 05:07:33;;;;;;;8.65;3.35;;;;;;;;;;5011884;28;20029;-77
2023/08/13 05:10:18;;;;;;;4.10;3.00;;;;;;;;;;5025041;28;20037;-77
2023/08/13 05:13:03;;;;;;;6.90;3.40;;;;;;;;;;5029353;28;20038;-75
2023/08/13 05:15:49;;;;;;;3.95;3.10;;;;;;;;;;5023142;28;20395;-79
2023/08/13 05:18:34;;;;;;;6.00;3.30;;;;;;;;;;5026283;28;20025;-80
2023/08/13 05:21:19;;;;;;;5.00;3.25;;;;;;;;;;5012888;28;20090;-79
2023/08/13 05:24:05;;;;;;;5.30;3.22;;;;;;;;;;5025330;28;20036;-80
2023/08/13 05:26:50;;;;;;;3.70;2.88;;;;;;;;;;5029291;28;20379;-82
2023/08/13 05:29:35;;;;;;;6.70;3.17;;;;;;;;;;5012144;28;20052;-73
2023/08/13 05:32:22;;;;;;;3.67;2.63;;;;;;;;;;5010972;28;20035;-78
2023/08/13 05:35:07;;;;;;;6.82;3.88;;;;;;;;;;5023263;28;20037;-79
2023/08/13 05:37:53;;;;;;;6.75;2.92;;;;;;;;;;5010908;28;20026;-80
2023/08/13 05:40:38;;;;;;;6.10;3.10;;;;;;;;;;5024449;28;20044;-80
2023/08/13 05:43:23;;;;;;;6.07;3.22;;;;;;;;;;5015607;28;20009;-81
2023/08/13 05:46:08;;;;;;;3.75;2.70;;;;;;;;;;5008413;28;20025;-80
2023/08/13 05:48:54;;;;;;;7.18;3.17;;;;;;;;;;5019561;28;20064;-78
2023/08/13 05:51:39;;;;;;;6.07;3.47;;;;;;;;;;5026501;28;20025;-79
2023/08/13 05:54:24;;;;;;;4.00;2.83;;;;;;;;;;5021525;28;20032;-79
2023/08/13 05:57:09;;;;;;;5.53;3.35;;;;;;;;;;5031788;28;20124;-79
2023/08/13 05:59:54;;;;;;;7.18;2.88;;;;;;;;;;5022746;28;20030;-79
2023/08/13 06:02:40;;;;;;;5.05;3.40;;;;;;;;;;5028494;28;20038;-78
2023/08/13 06:05:25;;;;;;;4.20;3.08;;;;;;;;;;5027076;28;20021;-79
2023/08/13 06:08:10;;;;;;;4.50;3.30;;;;;;;;;;5031092;28;20037;-75
2023/08/13 06:10:55;;;;;;;6.45;3.38;;;;;;;;;;5029131;28;20033;-78
2023/08/13 06:13:40;;;;;;;7.93;3.67;;;;;;;;;;5028620;28;20032;-79
2023/08/13 06:16:26;;;;;;;4.90;3.63;;;;;;;;;;5028020;28;20021;-79
2023/08/13 06:19:12;;;;;;;4.30;3.13;;;;;;;;;;5027480;28;20482;-79
2023/08/13 06:21:57;;;;;;;10.15;4.05;;;;;;;;;;5029096;28;20052;-78
2023/08/13 06:24:42;;;;;;;5.85;3.30;;;;;;;;;;5030706;28;20063;-78
2023/08/13 06:27:28;;;;;;;7.57;3.63;;;;;;;;;;5026127;28;20033;-77
2023/08/13 06:30:18;;;;;;;7.30;3.85;;;;;;;;;;5032905;28;20071;-77
2023/08/13 06:33:03;;;;;;;5.50;3.50;;;;;;;;;;5033564;28;20022;-78
2023/08/13 06:35:49;;;;;;;6.55;3.40;;;;;;;;;;5029027;28;20032;-78
2023/08/13 06:38:36;;;;;;;8.70;3.60;;;;;;;;;;5026724;28;20026;-77
2023/08/13 06:41:21;;;;;;;7.07;4.03;;;;;;;;;;5027910;28;20036;-77
2023/08/13 06:44:06;;;;;;;5.93;4.10;;;;;;;;;;5037200;28;20025;-80
2023/08/13 06:46:51;;;;;;;4.75;3.45;;;;;;;;;;5028102;28;20967;-81
2023/08/13 06:49:37;;;;;;;6.05;3.05;;;;;;;;;;5026724;28;20048;-77
2023/08/13 06:52:24;;;;;;;5.22;3.70;;;;;;;;;;5019930;28;20037;-77
2023/08/13 06:55:09;;;;;;;6.15;3.72;;;;;;;;;;5030420;28;20118;-77
2023/08/13 06:57:54;;;;;;;8.20;4.05;;;;;;;;;;5021883;28;20165;-77
2023/08/13 07:00:43;;;;;;;5.53;3.75;;;;;;;;;;5020443;28;20116;-78
2023/08/13 07:03:28;;;;;;;6.47;4.07;;;;;;;;;;5029917;28;20066;-75
2023/08/13 07:06:14;;;;;;;8.45;4.43;;;;;;;;;;5028798;28;20055;-81
2023/08/13 07:09:01;;;;;;;7.65;4.25;;;;;;;;;;5012368;28;20029;-79
2023/08/13 07:11:46;;;;;;;6.78;3.67;;;;;;;;;;5027305;28;20396;-80
2023/08/13 07:14:32;;;;;;;9.02;4.13;;;;;;;;;;5020117;28;20029;-81
2023/08/13 07:17:17;;;;;;;6.53;4.13;;;;;;;;;;5026122;28;20037;-78
2023/08/13 07:20:06;;;;;;;10.82;4.60;;;;;;;;;;5026340;28;20033;-74
2023/08/13 07:22:52;;;;;;;7.55;3.70;;;;;;;;;;5027108;28;20041;-82
2023/08/13 07:25:37;;;;;;;8.57;5.30;;;;;;;;;;5025480;28;20112;-77
2023/08/13 07:28:22;;;;;;;10.05;5.15;;;;;;;;;;5007369;28;20465;-78
2023/08/13 07:31:09;;;;;;;7.90;4.28;;;;;;;;;;5025155;28;20029;-79
2023/08/13 07:33:55;;;;;;;5.85;3.67;;;;;;;;;;5020793;28;20049;-79
2023/08/13 07:36:41;;;;;;;8.27;4.05;;;;;;;;;;5013559;28;20621;-78
2023/08/13 07:39:26;;;;;;;5.70;4.22;;;;;;;;;;5029101;28;20061;-75
2023/08/13 07:42:12;;;;;;;6.38;4.25;;;;;;;;;;5031633;28;20585;-76
2023/08/13 07:44:57;;;;;;;7.28;3.92;;;;;;;;;;5005263;28;20116;-74
2023/08/13 07:47:42;;;;;;;6.10;3.63;;;;;;;;;;5028574;28;20060;-75
2023/08/13 07:50:29;;;;;;;11.27;4.53;;;;;;;;;;5027075;28;20442;-75
2023/08/13 07:53:15;;;;;;;7.30;4.95;;;;;;;;;;5038528;28;20484;-75
2023/08/13 07:56:00;;;;;;;7.20;3.97;;;;;;;;;;5027950;28;20053;-75
2023/08/13 07:58:46;;;;;;;7.10;4.95;;;;;;;;;;5015945;28;20108;-75
2023/08/13 08:01:31;;;;;;;6.32;4.00;;;;;;;;;;5028465;28;20095;-75
2023/08/13 08:04:16;;;;;;;5.97;3.63;;;;;;;;;;5028282;28;20098;-75
2023/08/13 08:07:01;;;;;;;5.75;3.47;;;;;;;;;;5028181;28;20095;-75
2023/08/13 08:09:46;;;;;;;8.10;4.70;;;;;;;;;;5021715;28;20150;-77
2023/08/13 08:12:32;;;;;;;6.18;4.20;;;;;;;;;;5021826;28;20048;-76
2023/08/13 08:15:17;;;;;;;7.75;4.43;;;;;;;;;;5026155;28;20029;-80
2023/08/13 08:18:02;;;;;;;5.13;3.78;;;;;;;;;;5027406;28;20068;-74
2023/08/13 08:20:47;;;;;;;6.43;3.58;;;;;;;;;;5049802;22;20136;-71
2023/08/13 08:23:33;;;;;;;8.50;5.13;;;;;;;;;;5033703;28;20480;-73
2023/08/13 08:26:19;;;;;;;6.43;4.28;;;;;;;;;;5034045;28;20018;-73
2023/08/13 08:29:04;;;;;;;6.32;4.18;;;;;;;;;;5032886;28;20032;-74
2023/08/13 08:31:50;;;;;;;6.68;3.92;;;;;;;;;;5033236;28;20468;-74
2023/08/13 08:34:36;;;;;;;5.93;3.72;;;;;;;;;;5033850;28;20040;-78
2023/08/13 08:37:21;;;;;;;6.75;3.47;;;;;;;;;;5034100;28;20021;-70
2023/08/13 08:40:07;;;;;;;6.50;4.47;;;;;;;;;;5033142;28;20021;-70
2023/08/13 08:42:53;;;;;;;9.00;4.65;;;;;;;;;;5033361;28;20057;-70
2023/08/13 08:45:39;;;;;;;8.70;4.32;;;;;;;;;;5032323;28;20032;-70
2023/08/13 08:48:26;;;;;;;11.35;4.57;;;;;;;;;;5033121;28;20385;-70
2023/08/13 08:51:12;;;;;;;6.32;4.07;;;;;;;;;;5032749;28;20025;-70
2023/08/13 08:53:58;;;;;;;5.65;3.58;;;;;;;;;;5032989;28;20021;-71
2023/08/13 08:56:44;;;;;;;9.40;4.40;;;;;;;;;;5033361;28;20108;-70
2023/08/13 08:59:29;;;;;;;4.95;3.63;;;;;;;;;;5033519;28;20026;-69
2023/08/13 09:02:15;;;;;;;6.50;4.47;;;;;;;;;;5031497;28;20037;-70
2023/08/13 09:05:01;;;;;;;5.25;3.60;;;;;;;;;;5031890;28;20022;-70
2023/08/13 09:07:46;;;;;;;6.95;4.03;;;;;;;;;;5033066;28;20423;-71
2023/08/13 09:10:32;;;;;;;6.80;4.88;;;;;;;;;;5033005;28;20029;-72
2023/08/13 09:13:17;;;;;;;8.10;4.13;;;;;;;;;;5031630;28;20124;-71
2023/08/13 09:16:03;;;;;;;8.02;4.40;;;;;;;;;;5032915;28;20210;-74
2023/08/13 09:18:50;;;;;;;9.90;4.07;;;;;;;;;;5031106;28;20053;-74
2023/08/13 09:21:36;;;;;;;5.55;3.50;;;;;;;;;;5031341;28;20408;-75
2023/08/13 09:24:34;;;;;;;7.55;4.13;;;;;;;;;;5033032;28;20442;-75
2023/08/13 09:27:20;;;;;;;5.93;3.92;;;;;;;;;;5032368;28;20072;-74
2023/08/13 09:30:09;;;;;;;8.10;3.50;;;;;;;;;;5032797;28;20044;-77
2023/08/13 09:32:58;;;;;;;5.40;3.20;;;;;;;;;;5031482;28;20025;-67
2023/08/13 09:35:44;;;;;;;5.13;3.58;;;;;;;;;;5031950;28;20021;-65
2023/08/13 09:38:29;;;;;;;4.85;2.88;;;;;;;;;;5032043;28;20469;-66
2023/08/13 09:41:15;;;;;;;6.10;2.97;;;;;;;;;;5032039;28;20037;-66
2023/08/13 09:44:05;;;;;;;4.78;2.92;;;;;;;;;;5035054;28;20384;-64
2023/08/13 09:46:53;;;;;;;8.90;3.70;;;;;;;;;;5036051;28;20026;-64
2023/08/13 09:49:38;;;;;;;5.05;2.83;;;;;;;;;;5035830;28;20021;-69
2023/08/13 09:52:28;;;;;;;3.97;2.85;;;;;;;;;;5035992;28;20164;-67
2023/08/13 09:55:16;;;;;;;5.03;3.38;;;;;;;;;;5036174;28;20477;-66
2023/08/13 09:58:04;;;;;;;6.70;3.65;;;;;;;;;;5035832;28;20029;-67
2023/08/13 10:00:50;;;;;;;5.68;3.25;;;;;;;;;;5033969;28;20116;-67
2023/08/13 10:03:35;;;;;;;6.40;3.33;;;;;;;;;;5035650;28;20025;-68
2023/08/13 10:06:21;;;;;;;6.20;3.60;;;;;;;;;;5035997;28;20136;-75
2023/08/13 10:09:07;;;;;;;3.85;2.90;;;;;;;;;;5034965;28;20026;-76
2023/08/13 10:11:53;;;;;;;6.38;3.47;;;;;;;;;;5035537;28;20453;-75
2023/08/13 10:14:39;;;;;;;6.05;3.95;;;;;;;;;;5035405;28;20037;-72
2023/08/13 10:17:27;;;;;;;4.40;3.35;;;;;;;;;;5034253;28;20044;-77
2023/08/13 10:20:12;;;;;;;8.00;4.03;;;;;;;;;;5035257;28;20137;-72
2023/08/13 10:23:01;;;;;;;4.65;2.58;;;;;;;;;;5035756;28;20044;-72
2023/08/13 10:25:52;;;;;;;4.53;3.28;;;;;;;;;;5034476;28;20464;-68
2023/08/13 10:28:37;;;;;;;5.00;3.83;;;;;;;;;;5037331;28;20125;-69
2023/08/13 10:31:27;;;;;;;4.53;3.00;;;;;;;;;;5037859;28;20022;-72
2023/08/13 10:34:13;;;;;;;4.72;3.10;;;;;;;;;;5037775;28;20031;-73
2023/08/13 10:36:58;;;;;;;6.13;3.35;;;;;;;;;;5035762;28;20465;-71
2023/08/13 10:39:45;;;;;;;5.78;2.65;;;;;;;;;;5036982;28;20116;-70
2023/08/13 10:42:36;;;;;;;5.60;3.35;;;;;;;;;;5038730;28;20027;-72
2023/08/13 10:45:37;;;;;;;4.57;3.15;;;;;;;;;;5037232;28;20079;-68
2023/08/13 10:48:27;;;;;;;3.70;2.67;;;;;;;;;;5037650;28;20029;-71
2023/08/13 10:51:13;;;;;;;4.65;3.08;;;;;;;;;;5037088;28;20377;-74
2023/08/13 10:54:00;;;;;;;6.55;3.50;;;;;;;;;;5035814;28;20026;-72
2023/08/13 10:57:06;;;;;;;3.90;2.80;;;;;;;;;;5035120;28;20431;-77
2023/08/13 10:59:51;;;;;;;4.38;3.38;;;;;;;;;;5068530;28;20020;-80
2023/08/13 11:02:37;;;;;;;6.63;3.05;;;;;;;;;;5075320;28;20041;-72
2023/08/13 11:05:23;;;;;;;7.10;3.63;;;;;;;;;;5061208;28;20024;-73
2023/08/13 11:08:08;;;;;;;5.10;3.20;;;;;;;;;;5077570;28;20021;-72
2023/08/13 11:10:54;;;;;;;6.35;3.80;;;;;;;;;;5062316;28;20254;-70
2023/08/13 11:13:40;;;;;;;5.07;3.30;;;;;;;;;;5076408;28;20486;-70
2023/08/13 11:16:27;;;;;;;8.10;3.53;;;;;;;;;;5061531;28;20020;-69
2023/08/13 11:19:12;;;;;;;5.65;3.83;;;;;;;;;;5075660;28;20053;-64
2023/08/13 11:21:59;;;;;;;7.40;4.45;;;;;;;;;;5075469;28;20040;-69
2023/08/13 11:24:45;;;;;;;4.97;3.38;;;;;;;;;;5076041;28;20021;-71
2023/08/13 11:27:31;;;;;;;8.13;3.85;;;;;;;;;;5074315;28;20025;-71
2023/08/13 11:30:16;;;;;;;6.75;3.97;;;;;;;;;;5074335;28;20107;-69
2023/08/13 11:33:02;;;;;;;4.22;3.17;;;;;;;;;;5059766;28;20024;-72
2023/08/13 11:35:48;;;;;;;6.85;4.05;;;;;;;;;;5072558;28;20095;-72
2023/08/13 11:38:33;;;;;;;6.68;3.88;;;;;;;;;;5062318;28;20032;-71
2023/08/13 11:41:20;;;;;;;4.70;3.25;;;;;;;;;;5075436;28;20120;-66
2023/08/13 11:44:07;;;;;;;6.82;4.20;;;;;;;;;;5074710;28;20044;-75
2023/08/13 11:46:57;;;;;;;7.38;4.13;;;;;;;;;;5075011;28;20035;-69
2023/08/13 11:49:43;;;;;;;5.97;3.55;;;;;;;;;;5074941;28;20016;-66
2023/08/13 11:52:28;;;;;;;8.38;4.20;;;;;;;;;;5074954;28;20058;-65
2023/08/13 11:55:14;;;;;;;7.47;4.00;;;;;;;;;;5074379;28;20115;-67
2023/08/13 11:58:00;;;;;;;5.50;3.60;;;;;;;;;;5059890;28;20081;-66
2023/08/13 12:00:49;;;;;;;6.97;3.47;;;;;;;;;;5076143;28;20486;-69
2023/08/13 12:03:41;;;;;;;7.60;4.47;;;;;;;;;;5075262;28;20032;-67
2023/08/13 12:06:26;;;;;;;6.50;3.42;;;;;;;;;;5073032;28;20040;-69
2023/08/13 12:09:13;;;;;;;7.53;4.47;;;;;;;;;;5071965;28;20387;-71
2023/08/13 12:11:58;;;;;;;7.18;4.18;;;;;;;;;;5073218;28;20364;-70
2023/08/13 12:14:44;;;;;;;4.07;2.92;;;;;;;;;;5074161;28;20024;-71
2023/08/13 12:17:30;;;;;;;4.55;3.40;;;;;;;;;;5073394;28;20161;-67
2023/08/13 12:20:16;;;;;;;4.88;3.28;;;;;;;;;;5073724;28;20044;-74
2023/08/13 12:23:02;;;;;;;7.15;3.80;;;;;;;;;;5074867;28;20054;-72
2023/08/13 12:25:48;;;;;;;6.95;3.55;;;;;;;;;;5071988;28;20027;-72
2023/08/13 12:28:33;;;;;;;6.20;3.78;;;;;;;;;;5074293;28;20056;-70
2023/08/13 12:31:19;;;;;;;7.57;3.53;;;;;;;;;;5072168;28;20066;-75
2023/08/13 12:34:05;;;;;;;6.80;3.70;;;;;;;;;;5073754;28;20021;-68
2023/08/13 12:36:50;;;;;;;6.25;3.30;;;;;;;;;;5074211;28;20083;-75
2023/08/13 12:39:36;;;;;;;7.45;4.07;;;;;;;;;;5060726;28;20115;-72
2023/08/13 12:42:21;;;;;;;5.90;3.60;;;;;;;;;;5073839;28;20436;-71
2023/08/13 12:45:07;;;;;;;5.10;2.72;;;;;;;;;;5072531;28;20029;-71
2023/08/13 12:47:53;;;;;;;4.57;2.90;;;;;;;;;;5062932;28;20059;-71
2023/08/13 12:50:38;;;;;;;5.10;3.30;;;;;;;;;;5074377;28;20082;-69
2023/08/13 12:53:24;;;;;;;5.30;3.38;;;;;;;;;;5073642;28;20032;-68
2023/08/13 12:56:09;;;;;;;5.93;3.42;;;;;;;;;;5059094;28;20051;-74
2023/08/13 12:58:55;;;;;;;6.32;3.22;;;;;;;;;;5072380;28;20055;-72
2023/08/13 13:01:40;;;;;;;5.20;3.03;;;;;;;;;;5074908;28;20028;-75
2023/08/13 13:04:26;;;;;;;3.40;2.92;;;;;;;;;;5072061;28;20025;-75
2023/08/13 13:07:11;;;;;;;7.15;3.08;;;;;;;;;;5071579;28;20398;-73
2023/08/13 13:09:57;;;;;;;6.53;3.50;;;;;;;;;;5074462;28;20025;-68
2023/08/13 13:12:44;;;;;;;5.43;3.00;;;;;;;;;;5073481;28;20028;-65
2023/08/13 13:15:29;;;;;;;5.78;3.33;;;;;;;;;;5072118;28;20067;-69
2023/08/13 13:18:15;;;;;;;5.68;2.65;;;;;;;;;;5073999;28;20013;-69
2023/08/13 13:21:00;;;;;;;8.70;3.38;;;;;;;;;;5072683;28;20051;-70
2023/08/13 13:23:46;;;;;;;4.35;2.72;;;;;;;;;;5075205;28;20376;-70
2023/08/13 13:26:32;;;;;;;4.95;2.92;;;;;;;;;;5073111;28;20025;-71
2023/08/13 13:29:17;;;;;;;3.53;2.33;;;;;;;;;;5059237;28;20157;-73
2023/08/13 13:32:03;;;;;;;4.68;2.80;;;;;;;;;;5071777;28;20012;-74
2023/08/13 13:34:48;;;;;;;3.85;2.70;;;;;;;;;;5073613;28;20031;-72
2023/08/13 13:37:34;;;;;;;15.88;8.50;;;;;;;;;;5072401;28;20025;-77
2023/08/13 13:40:19;;;;;;;4.00;2.85;;;;;;;;;;5072666;28;20025;-68
2023/08/13 13:43:05;;;;;;;5.22;2.97;;;;;;;;;;5072253;28;20486;-72
2023/08/13 13:45:51;;;;;;;5.68;2.80;;;;;;;;;;5070874;28;20032;-72
2023/08/13 13:48:36;;;;;;;6.85;2.78;;;;;;;;;;5071248;28;20016;-76
2023/08/13 13:51:22;;;;;;;3.75;2.60;;;;;;;;;;5071277;28;20023;-73
2023/08/13 13:54:07;;;;;;;4.53;2.40;;;;;;;;;;5074234;28;20028;-75
2023/08/13 13:56:53;;;;;;;4.57;2.30;;;;;;;;;;5075011;28;20099;-76
2023/08/13 13:59:38;;;;;;;7.13;3.28;;;;;;;;;;5058368;28;20031;-74
2023/08/13 14:02:24;;;;;;;4.07;2.47;;;;;;;;;;5070784;28;20036;-75
2023/08/13 14:05:10;;;;;;;5.45;2.25;;;;;;;;;;5075548;28;20299;-62
2023/08/13 14:07:55;;;;;;;3.47;2.42;;;;;;;;;;5072616;28;20104;-70
2023/08/13 14:10:41;;;;;;;4.65;2.58;;;;;;;;;;5071006;28;20025;-74
2023/08/13 14:13:26;;;;;;;3.10;2.20;;;;;;;;;;5070461;28;20089;-70
2023/08/13 14:16:12;;;;;;;6.80;3.72;;;;;;;;;;5070298;28;20056;-71
2023/08/13 14:18:57;;;;;;;5.60;3.17;;;;;;;;;;5070248;28;20062;-69
2023/08/13 14:21:43;;;;;;;6.05;2.83;;;;;;;;;;5070627;28;20032;-69
2023/08/13 14:24:28;;;;;;;3.10;2.42;;;;;;;;;;5071131;28;20030;-74
2023/08/13 14:27:14;;;;;;;4.88;2.63;;;;;;;;;;5070842;28;20035;-75
2023/08/13 14:30:00;;;;;;;7.38;2.88;;;;;;;;;;5074117;28;20016;-77
2023/08/13 14:32:45;;;;;;;13.35;5.28;;;;;;;;;;5074242;28;20107;-76
2023/08/13 14:35:31;;;;;;;12.70;3.97;;;;;;;;;;5074215;28;20032;-76
2023/08/13 14:38:17;;;;;;;4.70;2.40;;;;;;;;;;5075159;28;20013;-76
2023/08/13 14:41:03;;;;;;;6.28;2.80;;;;;;;;;;5073642;28;20020;-70
2023/08/13 14:43:50;;;;;;;5.97;3.10;;;;;;;;;;5074212;28;20025;-73
2023/08/13 14:46:35;;;;;;;6.03;2.60;;;;;;;;;;5060676;28;20020;-70
2023/08/13 14:49:21;;;;;;;4.90;2.40;;;;;;;;;;5073602;28;20025;-69
2023/08/13 14:52:06;;;;;;;8.57;4.03;;;;;;;;;;5073939;28;20099;-68
2023/08/13 14:54:52;;;;;;;12.07;4.75;;;;;;;;;;5073818;28;20052;-70
2023/08/13 14:57:37;;;;;;;3.95;2.70;;;;;;;;;;5073538;28;20078;-66
2023/08/13 15:00:23;;;;;;;4.40;2.40;;;;;;;;;;5073553;28;20035;-72
2023/08/13 15:03:08;;;;;;;7.78;3.25;;;;;;;;;;5059004;28;20020;-68
2023/08/13 15:05:54;;;;;;;14.88;4.35;;;;;;;;;;5073896;28;20051;-73
2023/08/13 15:08:39;;;;;;;5.40;3.25;;;;;;;;;;5073818;28;20017;-73
2023/08/13 15:11:25;;;;;;;4.13;2.33;;;;;;;;;;5074278;28;20425;-73
2023/08/13 15:14:11;;;;;;;3.97;2.70;;;;;;;;;;5073949;28;20024;-73
2023/08/13 15:16:56;;;;;;;4.93;2.97;;;;;;;;;;5060131;28;20020;-73
2023/08/13 15:19:42;;;;;;;5.10;3.22;;;;;;;;;;5074275;28;20066;-74
2023/08/13 15:22:28;;;;;;;4.55;2.50;;;;;;;;;;5073877;28;20368;-66
2023/08/13 15:25:13;;;;;;;3.95;2.38;;;;;;;;;;5073781;28;20166;-66
2023/08/13 15:27:59;;;;;;;5.20;2.95;;;;;;;;;;5074180;28;20039;-65
2023/08/13 15:30:44;;;;;;;4.82;2.20;;;;;;;;;;5074449;28;20021;-66
2023/08/13 15:33:30;;;;;;;3.47;2.15;;;;;;;;;;5074484;28;20391;-66
2023/08/13 15:36:15;;;;;;;3.30;2.20;;;;;;;;;;5073743;28;20021;-66
2023/08/13 15:39:01;;;;;;;3.90;2.67;;;;;;;;;;5073475;28;20387;-73
2023/08/13 15:41:47;;;;;;;3.20;2.17;;;;;;;;;;5072301;28;20033;-73
2023/08/13 15:44:32;;;;;;;6.57;2.90;;;;;;;;;;5073597;28;20467;-72
2023/08/13 15:47:18;;;;;;;5.97;2.83;;;;;;;;;;5073406;28;20097;-72
2023/08/13 15:50:03;;;;;;;4.07;2.42;;;;;;;;;;5073859;28;20138;-73
2023/08/13 15:52:50;;;;;;;5.70;3.20;;;;;;;;;;5073422;28;20012;-72
2023/08/13 15:55:37;;;;;;;3.83;2.72;;;;;;;;;;5073645;28;20074;-67
2023/08/13 15:58:23;;;;;;;3.53;2.33;;;;;;;;;;5072509;28;20017;-65
2023/08/13 16:01:09;;;;;;;4.50;2.85;;;;;;;;;;5059030;28;20027;-72
2023/08/13 16:03:54;;;;;;;3.20;2.47;;;;;;;;;;5072955;28;20063;-73
2023/08/13 16:06:41;;;;;;;7.82;2.40;;;;;;;;;;5073904;28;20442;-72
2023/08/13 16:09:27;;;;;;;4.43;2.80;;;;;;;;;;5072951;28;20082;-72
2023/08/13 16:12:12;;;;;;;5.88;3.83;;;;;;;;;;5073321;28;20373;-72
2023/08/13 16:15:07;;;;;;;5.88;3.20;;;;;;;;;;5072529;28;20078;-66
2023/08/13 16:17:52;;;;;;;4.70;2.75;;;;;;;;;;5058376;28;20112;-73
2023/08/13 16:20:38;;;;;;;3.40;2.40;;;;;;;;;;5072367;28;20055;-72
2023/08/13 16:23:23;;;;;;;6.10;2.90;;;;;;;;;;5073192;28;20136;-73
2023/08/13 16:26:09;;;;;;;6.07;3.78;;;;;;;;;;5072452;28;20021;-72
2023/08/13 16:28:55;;;;;;;7.07;3.17;;;;;;;;;;5072551;28;20027;-74
2023/08/13 16:31:40;;;;;;;6.22;2.90;;;;;;;;;;5072290;28;20094;-73
2023/08/13 16:34:26;;;;;;;4.35;2.28;;;;;;;;;;5072418;28;20060;-66